Time;durP1;ratioP1;P1;durP2;ratioP2;P2;SDS_P1;SDS_P2;PMS_P1;PMS_P2;Temp;Humidity;BMP_temperature;BMP_pressure;BME280_temperature;BME280_humidity;BME280_pressure;Samples;Min_cycle;Max_cycle;Signal;HPM_P1;HPM_P2
2022/06/12 00:01:12;;;;;;;15.73;4.07;;;;;;;;;;4938367;28;20035;-72
2022/06/12 00:03:38;;;;;;;18.98;4.13;;;;;;;;;;4938196;28;20037;-72
2022/06/12 00:06:07;;;;;;;13.63;3.65;;;;;;;;;;4928036;28;20158;-66
2022/06/12 00:08:36;;;;;;;11.65;3.30;;;;;;;;;;4924032;28;20538;-66
2022/06/12 00:11:04;;;;;;;11.88;3.72;;;;;;;;;;4939727;28;20027;-66
2022/06/12 00:13:33;;;;;;;12.15;4.07;;;;;;;;;;4937139;28;20375;-66
2022/06/12 00:16:02;;;;;;;14.93;3.33;;;;;;;;;;4937787;28;20027;-66
2022/06/12 00:18:30;;;;;;;11.48;3.17;;;;;;;;;;4934989;28;21061;-66
2022/06/12 00:21:14;;;;;;;11.82;3.08;;;;;;;;;;4935503;28;20053;-66
2022/06/12 00:23:45;;;;;;;11.18;2.95;;;;;;;;;;4932392;28;20054;-66
2022/06/12 00:26:14;;;;;;;11.32;3.00;;;;;;;;;;4940138;28;20034;-65
2022/06/12 00:28:41;;;;;;;13.05;3.70;;;;;;;;;;4949571;28;20089;-66
2022/06/12 00:31:08;;;;;;;14.30;4.53;;;;;;;;;;4957725;28;20537;-66
2022/06/12 00:33:36;;;;;;;9.50;3.05;;;;;;;;;;4949644;28;20085;-65
2022/06/12 00:36:03;;;;;;;12.43;3.83;;;;;;;;;;4952665;28;20038;-66
2022/06/12 00:38:30;;;;;;;10.25;2.67;;;;;;;;;;4957923;28;20062;-66
2022/06/12 00:40:58;;;;;;;10.57;3.03;;;;;;;;;;4952713;28;21000;-66
2022/06/12 00:43:29;;;;;;;13.00;3.60;;;;;;;;;;4957499;28;20128;-66
2022/06/12 00:46:01;;;;;;;12.40;3.78;;;;;;;;;;4954280;28;20039;-65
2022/06/12 00:48:30;;;;;;;8.82;2.97;;;;;;;;;;4956489;28;20062;-65
2022/06/12 00:51:15;;;;;;;10.88;3.08;;;;;;;;;;4951757;28;20022;-65
2022/06/12 00:53:48;;;;;;;10.80;2.88;;;;;;;;;;4949019;28;20038;-66
2022/06/12 00:56:16;;;;;;;14.35;3.70;;;;;;;;;;4961150;28;20034;-68
2022/06/12 00:58:45;;;;;;;11.50;3.10;;;;;;;;;;4953182;28;20039;-66
2022/06/12 01:01:15;;;;;;;10.55;3.38;;;;;;;;;;4962373;28;20034;-67
2022/06/12 01:06:35;;;;;;;11.13;3.60;;;;;;;;;;4956648;28;20041;-66
2022/06/12 01:09:04;;;;;;;9.30;2.80;;;;;;;;;;4946833;28;20846;-67
2022/06/12 01:11:30;;;;;;;9.05;2.40;;;;;;;;;;4945815;28;20040;-67
2022/06/12 01:13:57;;;;;;;10.43;2.53;;;;;;;;;;4956398;28;20096;-67
2022/06/12 01:16:23;;;;;;;10.57;2.70;;;;;;;;;;4959397;28;20031;-66
2022/06/12 01:18:52;;;;;;;8.80;2.67;;;;;;;;;;4951303;28;20034;-67
2022/06/12 01:21:18;;;;;;;8.70;2.45;;;;;;;;;;4941406;28;20038;-66
2022/06/12 01:23:50;;;;;;;11.82;2.60;;;;;;;;;;4954168;28;20035;-67
2022/06/12 01:26:25;;;;;;;9.25;2.25;;;;;;;;;;4955540;28;20048;-67
2022/06/12 01:29:02;;;;;;;10.18;2.20;;;;;;;;;;4957128;28;20042;-70
2022/06/12 01:31:43;;;;;;;7.93;2.17;;;;;;;;;;4956218;28;20085;-70
2022/06/12 01:34:27;;;;;;;10.52;2.33;;;;;;;;;;4955058;28;20492;-70
2022/06/12 01:37:06;;;;;;;9.23;2.25;;;;;;;;;;4954233;28;22058;-70
2022/06/12 01:39:36;;;;;;;7.35;2.17;;;;;;;;;;4958089;28;20133;-70
2022/06/12 01:42:21;;;;;;;9.02;2.50;;;;;;;;;;4957545;28;20117;-70
2022/06/12 01:45:02;;;;;;;8.73;2.47;;;;;;;;;;4957196;28;20042;-68
2022/06/12 01:47:47;;;;;;;9.48;2.35;;;;;;;;;;4957075;28;21488;-69
2022/06/12 01:50:21;;;;;;;11.73;2.60;;;;;;;;;;4958881;28;20023;-71
2022/06/12 01:53:05;;;;;;;9.93;2.33;;;;;;;;;;4950179;28;20030;-69
2022/06/12 01:55:53;;;;;;;9.05;2.22;;;;;;;;;;4961988;28;20379;-70
2022/06/12 01:58:28;;;;;;;7.03;2.10;;;;;;;;;;4960365;28;20042;-70
2022/06/12 02:01:01;;;;;;;9.18;2.03;;;;;;;;;;4953283;28;20035;-70
2022/06/12 02:03:34;;;;;;;9.30;2.08;;;;;;;;;;4962153;28;20062;-69
2022/06/12 02:06:16;;;;;;;10.57;2.45;;;;;;;;;;4957253;28;20027;-70
2022/06/12 02:09:02;;;;;;;8.75;2.45;;;;;;;;;;4953465;28;20038;-70
2022/06/12 02:14:26;;;;;;;8.20;2.10;;;;;;;;;;4958194;28;20077;-69
2022/06/12 02:16:56;;;;;;;8.40;2.17;;;;;;;;;;4935982;28;20751;-69
2022/06/12 02:19:28;;;;;;;10.80;2.40;;;;;;;;;;4955983;28;20026;-70
2022/06/12 02:22:02;;;;;;;8.57;2.40;;;;;;;;;;4934361;28;20887;-69
2022/06/12 02:24:44;;;;;;;8.95;2.55;;;;;;;;;;4955189;28;20118;-69
2022/06/12 02:27:17;;;;;;;8.55;2.03;;;;;;;;;;4957047;28;20049;-69
2022/06/12 02:29:50;;;;;;;8.25;2.15;;;;;;;;;;4955615;28;20117;-69
2022/06/12 02:32:23;;;;;;;10.63;2.65;;;;;;;;;;4958403;28;20432;-69
2022/06/12 02:34:56;;;;;;;9.20;2.45;;;;;;;;;;4956655;28;20070;-69
2022/06/12 02:37:28;;;;;;;9.35;2.00;;;;;;;;;;4957748;28;20035;-68
2022/06/12 02:40:00;;;;;;;9.38;2.55;;;;;;;;;;4956476;28;20070;-71
2022/06/12 02:42:30;;;;;;;11.98;3.00;;;;;;;;;;4955393;28;20041;-69
2022/06/12 02:45:03;;;;;;;10.75;2.60;;;;;;;;;;4957453;28;20453;-69
2022/06/12 02:47:31;;;;;;;10.57;2.92;;;;;;;;;;4958025;28;20434;-69
2022/06/12 02:49:59;;;;;;;11.10;3.25;;;;;;;;;;4955419;28;20443;-69
2022/06/12 02:52:41;;;;;;;13.65;3.22;;;;;;;;;;4957969;28;20022;-68
2022/06/12 02:55:41;;;;;;;11.77;3.25;;;;;;;;;;4959599;28;20741;-69
2022/06/12 02:58:14;;;;;;;12.25;3.00;;;;;;;;;;4898253;29;20047;-69
2022/06/12 03:00:40;;;;;;;11.48;3.10;;;;;;;;;;4896060;29;20071;-69
2022/06/12 03:03:15;;;;;;;9.43;2.95;;;;;;;;;;4899412;29;20900;-69
2022/06/12 03:05:43;;;;;;;10.32;2.67;;;;;;;;;;4884659;29;20147;-70
2022/06/12 03:08:15;;;;;;;7.55;2.20;;;;;;;;;;4899564;29;20300;-71
2022/06/12 03:10:52;;;;;;;10.82;2.40;;;;;;;;;;4889463;29;20035;-70
2022/06/12 03:13:19;;;;;;;8.05;2.20;;;;;;;;;;4906565;29;20391;-71
2022/06/12 03:15:54;;;;;;;9.50;2.20;;;;;;;;;;4905301;29;20059;-70
2022/06/12 03:18:23;;;;;;;8.60;2.40;;;;;;;;;;4908078;29;20134;-70
2022/06/12 03:20:56;;;;;;;8.02;2.28;;;;;;;;;;4909551;29;20185;-71
2022/06/12 03:23:40;;;;;;;6.25;1.90;;;;;;;;;;4902624;28;20039;-69
2022/06/12 03:26:09;;;;;;;10.60;2.10;;;;;;;;;;4902767;29;20094;-70
2022/06/12 03:29:04;;;;;;;11.65;2.22;;;;;;;;;;4888403;29;20195;-70
2022/06/12 03:31:41;;;;;;;8.18;2.03;;;;;;;;;;4809890;29;20479;-69
2022/06/12 03:34:15;;;;;;;8.00;2.10;;;;;;;;;;4829875;29;20572;-69
2022/06/12 03:36:48;;;;;;;8.00;1.90;;;;;;;;;;4834407;29;20045;-70
2022/06/12 03:39:16;;;;;;;8.50;1.70;;;;;;;;;;4823408;29;20048;-69
2022/06/12 03:42:05;;;;;;;7.30;1.98;;;;;;;;;;4837485;29;20049;-69
2022/06/12 03:44:34;;;;;;;9.65;2.10;;;;;;;;;;4842603;29;20063;-68
2022/06/12 03:47:19;;;;;;;9.50;1.90;;;;;;;;;;4841923;29;20045;-71
2022/06/12 03:49:48;;;;;;;7.60;1.98;;;;;;;;;;4836354;29;20057;-71
2022/06/12 03:52:27;;;;;;;7.68;2.10;;;;;;;;;;4824381;29;20495;-69
2022/06/12 03:55:11;;;;;;;6.57;1.98;;;;;;;;;;4824046;29;20041;-70
2022/06/12 03:57:52;;;;;;;8.45;1.98;;;;;;;;;;4838627;29;20029;-69
2022/06/12 04:00:33;;;;;;;9.27;2.05;;;;;;;;;;4841380;29;20053;-69
2022/06/12 04:03:09;;;;;;;6.85;1.80;;;;;;;;;;4838039;29;20036;-69
2022/06/12 04:05:35;;;;;;;10.23;2.40;;;;;;;;;;4835171;29;20551;-70
2022/06/12 04:08:06;;;;;;;8.65;1.95;;;;;;;;;;4898282;28;20073;-70
2022/06/12 04:10:35;;;;;;;7.25;1.98;;;;;;;;;;4955603;28;20556;-70
2022/06/12 04:13:04;;;;;;;7.95;1.90;;;;;;;;;;4954363;28;20031;-69
2022/06/12 04:15:42;;;;;;;7.85;2.00;;;;;;;;;;4973139;28;20452;-70
2022/06/12 04:18:14;;;;;;;9.20;2.30;;;;;;;;;;4953037;28;20057;-69
2022/06/12 04:20:59;;;;;;;7.25;1.98;;;;;;;;;;4954779;28;20045;-70
2022/06/12 04:23:36;;;;;;;9.02;2.08;;;;;;;;;;4958112;28;20101;-70
2022/06/12 04:26:18;;;;;;;7.22;1.85;;;;;;;;;;4960569;28;20508;-70
2022/06/12 04:28:46;;;;;;;6.88;1.75;;;;;;;;;;4953504;28;20053;-70
2022/06/12 04:31:16;;;;;;;7.45;2.10;;;;;;;;;;4959316;28;20030;-69
2022/06/12 04:34:00;;;;;;;8.70;2.25;;;;;;;;;;4953528;28;20034;-69
2022/06/12 04:36:28;;;;;;;10.48;2.58;;;;;;;;;;4962488;28;20030;-69
2022/06/12 04:38:55;;;;;;;9.75;2.55;;;;;;;;;;4940387;28;21568;-70
2022/06/12 04:41:23;;;;;;;9.25;2.10;;;;;;;;;;4960088;28;20092;-69
2022/06/12 04:43:50;;;;;;;10.00;2.42;;;;;;;;;;4954260;28;20030;-69
2022/06/12 04:46:18;;;;;;;9.30;2.22;;;;;;;;;;4957255;28;20134;-71
2022/06/12 04:48:47;;;;;;;9.80;2.03;;;;;;;;;;4955380;28;20137;-70
2022/06/12 04:51:14;;;;;;;6.65;1.83;;;;;;;;;;4960473;28;20041;-69
2022/06/12 04:53:43;;;;;;;8.25;2.00;;;;;;;;;;4954386;28;20291;-70
2022/06/12 04:56:10;;;;;;;11.63;2.30;;;;;;;;;;4957291;28;20429;-70
2022/06/12 04:58:37;;;;;;;8.82;2.40;;;;;;;;;;4951487;28;20514;-70
2022/06/12 05:01:03;;;;;;;7.00;2.67;;;;;;;;;;4954585;28;20157;-70
2022/06/12 05:03:29;;;;;;;9.18;2.80;;;;;;;;;;4959803;28;20030;-70
2022/06/12 05:05:56;;;;;;;8.32;2.40;;;;;;;;;;4954994;28;20817;-70
2022/06/12 05:08:22;;;;;;;8.57;2.60;;;;;;;;;;4957256;28;20057;-69
2022/06/12 05:10:48;;;;;;;10.13;2.20;;;;;;;;;;4953345;28;20145;-69
2022/06/12 05:13:15;;;;;;;10.52;2.30;;;;;;;;;;4957428;28;20492;-69
2022/06/12 05:15:41;;;;;;;9.75;2.55;;;;;;;;;;4954931;28;20484;-72
2022/06/12 05:18:08;;;;;;;9.18;2.45;;;;;;;;;;4957209;28;20162;-70
2022/06/12 05:20:35;;;;;;;10.93;2.15;;;;;;;;;;4953155;28;20519;-70
2022/06/12 05:23:03;;;;;;;9.07;2.40;;;;;;;;;;4956047;28;20040;-70
2022/06/12 05:25:30;;;;;;;11.52;2.33;;;;;;;;;;4953538;28;20049;-70
2022/06/12 05:27:56;;;;;;;7.10;2.25;;;;;;;;;;4943373;28;20041;-71
2022/06/12 05:30:24;;;;;;;10.07;2.47;;;;;;;;;;4939742;28;20348;-70
2022/06/12 05:32:51;;;;;;;7.95;2.30;;;;;;;;;;4949504;28;20055;-69
2022/06/12 05:35:18;;;;;;;8.65;2.50;;;;;;;;;;4945148;28;20502;-70
2022/06/12 05:37:44;;;;;;;9.32;2.22;;;;;;;;;;4938330;28;20493;-69
2022/06/12 05:40:14;;;;;;;9.02;2.15;;;;;;;;;;4953901;28;20039;-69
2022/06/12 05:42:40;;;;;;;9.23;2.60;;;;;;;;;;4933979;28;20105;-69
2022/06/12 05:45:08;;;;;;;10.65;3.00;;;;;;;;;;4941787;28;20564;-69
2022/06/12 05:47:34;;;;;;;10.07;3.42;;;;;;;;;;4951737;28;20049;-70
2022/06/12 05:50:01;;;;;;;13.32;4.53;;;;;;;;;;4939694;28;20023;-69
2022/06/12 05:52:27;;;;;;;14.82;4.85;;;;;;;;;;4942145;28;20109;-69
2022/06/12 05:54:54;;;;;;;12.13;4.60;;;;;;;;;;4936155;28;20050;-70
2022/06/12 05:57:22;;;;;;;11.63;4.20;;;;;;;;;;4951418;28;20034;-69
2022/06/12 05:59:49;;;;;;;12.23;3.80;;;;;;;;;;4936983;28;20037;-71
2022/06/12 06:02:17;;;;;;;14.40;4.32;;;;;;;;;;4942447;28;20074;-70
2022/06/12 06:04:45;;;;;;;11.38;4.20;;;;;;;;;;4931657;28;20062;-72
2022/06/12 06:07:12;;;;;;;12.57;4.15;;;;;;;;;;4942300;28;20035;-71
2022/06/12 06:09:40;;;;;;;13.27;5.32;;;;;;;;;;4951158;28;20031;-70
2022/06/12 06:12:08;;;;;;;17.45;6.85;;;;;;;;;;4942568;28;20109;-69
2022/06/12 06:14:35;;;;;;;23.92;8.93;;;;;;;;;;4948808;28;20037;-70
2022/06/12 06:17:02;;;;;;;19.73;8.05;;;;;;;;;;4944850;28;20517;-70
2022/06/12 06:19:30;;;;;;;20.83;7.90;;;;;;;;;;4933766;28;20105;-70
2022/06/12 06:21:57;;;;;;;16.23;6.68;;;;;;;;;;4932707;28;20018;-70
2022/06/12 06:24:24;;;;;;;16.40;6.35;;;;;;;;;;4935181;28;20122;-70
2022/06/12 06:26:52;;;;;;;15.48;6.07;;;;;;;;;;4933008;28;20050;-69
2022/06/12 06:29:20;;;;;;;16.60;6.22;;;;;;;;;;4933254;28;20056;-70
2022/06/12 06:31:47;;;;;;;14.57;5.30;;;;;;;;;;4933936;28;20672;-70
2022/06/12 06:34:14;;;;;;;13.10;5.10;;;;;;;;;;4924705;28;20533;-69
2022/06/12 06:36:42;;;;;;;14.48;5.20;;;;;;;;;;4931420;28;20048;-69
2022/06/12 06:39:09;;;;;;;15.18;5.00;;;;;;;;;;4933954;28;20458;-70
2022/06/12 06:41:36;;;;;;;13.70;4.70;;;;;;;;;;4934327;28;20500;-70
2022/06/12 06:46:50;;;;;;;12.15;3.85;;;;;;;;;;4935785;28;20081;-70
2022/06/12 06:49:17;;;;;;;11.52;2.92;;;;;;;;;;4935811;28;20113;-70
2022/06/12 06:51:44;;;;;;;12.88;2.80;;;;;;;;;;4929212;28;20027;-70
2022/06/12 06:54:12;;;;;;;9.85;2.45;;;;;;;;;;4916917;28;20058;-69
2022/06/12 06:56:38;;;;;;;11.40;2.45;;;;;;;;;;4934902;28;20439;-72
2022/06/12 06:59:04;;;;;;;12.13;2.75;;;;;;;;;;4939866;28;20043;-71
2022/06/12 07:01:30;;;;;;;8.75;2.50;;;;;;;;;;4920966;28;20015;-70
2022/06/12 07:03:56;;;;;;;8.15;2.30;;;;;;;;;;4927478;28;20081;-70
2022/06/12 07:06:23;;;;;;;12.57;2.95;;;;;;;;;;4935957;28;20494;-70
2022/06/12 07:08:49;;;;;;;10.50;2.60;;;;;;;;;;4933390;28;20039;-70
2022/06/12 07:11:15;;;;;;;8.77;2.33;;;;;;;;;;4921458;28;20081;-71
2022/06/12 07:13:41;;;;;;;9.32;2.38;;;;;;;;;;4936855;28;20038;-71
2022/06/12 07:16:07;;;;;;;9.15;2.50;;;;;;;;;;4936535;28;20026;-71
2022/06/12 07:18:34;;;;;;;11.10;2.20;;;;;;;;;;4934220;28;20042;-70
2022/06/12 07:21:03;;;;;;;8.35;2.20;;;;;;;;;;4948914;28;20038;-71
2022/06/12 07:23:30;;;;;;;9.18;2.08;;;;;;;;;;4921230;28;20038;-71
2022/06/12 07:25:58;;;;;;;16.08;2.35;;;;;;;;;;4933331;28;20797;-71
2022/06/12 07:28:24;;;;;;;9.40;1.90;;;;;;;;;;4948843;28;20134;-71
2022/06/12 07:30:51;;;;;;;8.10;1.90;;;;;;;;;;4943363;28;20050;-70
2022/06/12 07:33:17;;;;;;;9.02;1.80;;;;;;;;;;4950824;28;20546;-64
2022/06/12 07:35:44;;;;;;;8.98;2.05;;;;;;;;;;4947143;28;20030;-64
2022/06/12 07:38:13;;;;;;;6.55;1.50;;;;;;;;;;4948544;28;20034;-64
2022/06/12 07:40:43;;;;;;;8.52;2.05;;;;;;;;;;4945821;28;20042;-64
2022/06/12 07:43:09;;;;;;;8.50;2.10;;;;;;;;;;4947373;28;20310;-64
2022/06/12 07:45:37;;;;;;;10.30;1.75;;;;;;;;;;4928300;28;20043;-64
2022/06/12 07:48:03;;;;;;;7.28;1.77;;;;;;;;;;4929468;28;20554;-64
2022/06/12 07:50:29;;;;;;;8.43;1.85;;;;;;;;;;4942012;28;20030;-65
2022/06/12 07:53:00;;;;;;;6.38;1.60;;;;;;;;;;4942062;28;20465;-64
2022/06/12 07:55:28;;;;;;;7.40;1.80;;;;;;;;;;4949684;28;20082;-64
2022/06/12 07:57:56;;;;;;;8.07;1.90;;;;;;;;;;4933140;28;21428;-64
2022/06/12 08:00:24;;;;;;;8.80;1.98;;;;;;;;;;4951055;28;20118;-64
2022/06/12 08:02:52;;;;;;;7.40;1.80;;;;;;;;;;4945732;28;20122;-64
2022/06/12 08:05:20;;;;;;;7.53;1.65;;;;;;;;;;4948856;28;20054;-65
2022/06/12 08:07:48;;;;;;;6.35;1.50;;;;;;;;;;4931200;28;20045;-64
2022/06/12 08:10:17;;;;;;;8.30;1.70;;;;;;;;;;4952996;28;20571;-64
2022/06/12 08:12:45;;;;;;;8.27;1.60;;;;;;;;;;4947684;28;20070;-65
2022/06/12 08:15:15;;;;;;;9.40;1.63;;;;;;;;;;4945179;28;21056;-66
2022/06/12 08:17:43;;;;;;;11.38;1.90;;;;;;;;;;4947476;28;20161;-64
2022/06/12 08:20:28;;;;;;;9.55;1.60;;;;;;;;;;4959728;28;20576;-64
2022/06/12 08:23:57;;;;;;;8.25;1.60;;;;;;;;;;4960984;28;23936;-65
2022/06/12 08:26:04;;;;;;;7.55;1.25;;;;;;;;;;4949061;28;20153;-67
2022/06/12 08:28:37;;;;;;;7.10;1.45;;;;;;;;;;4948914;28;20046;-67
2022/06/12 08:31:07;;;;;;;6.10;1.25;;;;;;;;;;4964959;28;20023;-71
2022/06/12 08:33:39;;;;;;;8.18;1.80;;;;;;;;;;4946833;28;20022;-67
2022/06/12 08:36:07;;;;;;;6.97;1.63;;;;;;;;;;4958502;28;20665;-66
2022/06/12 08:38:34;;;;;;;8.38;2.08;;;;;;;;;;4957952;28;20444;-68
2022/06/12 08:41:16;;;;;;;9.95;1.92;;;;;;;;;;4956020;28;20034;-66
2022/06/12 08:43:55;;;;;;;7.10;1.92;;;;;;;;;;4960766;28;20034;-72
2022/06/12 08:46:28;;;;;;;6.47;1.73;;;;;;;;;;4967603;28;20031;-70
2022/06/12 08:49:07;;;;;;;5.80;1.52;;;;;;;;;;4964780;28;20040;-67
2022/06/12 08:51:45;;;;;;;8.27;1.65;;;;;;;;;;4936583;28;20042;-67
2022/06/12 08:54:22;;;;;;;6.25;1.33;;;;;;;;;;4946241;28;20105;-67
2022/06/12 08:56:52;;;;;;;6.32;1.38;;;;;;;;;;4956580;28;20030;-65
2022/06/12 08:59:27;;;;;;;6.65;1.45;;;;;;;;;;4961233;28;20080;-68
2022/06/12 09:01:54;;;;;;;5.45;1.27;;;;;;;;;;4941642;28;22939;-66
2022/06/12 09:04:26;;;;;;;5.75;1.27;;;;;;;;;;4962312;28;20046;-66
2022/06/12 09:07:06;;;;;;;9.00;1.67;;;;;;;;;;4960368;28;20030;-66
2022/06/12 09:09:43;;;;;;;8.93;1.70;;;;;;;;;;4954648;28;20118;-67
2022/06/12 09:12:27;;;;;;;5.10;1.33;;;;;;;;;;4947815;28;20030;-66
2022/06/12 09:15:04;;;;;;;7.45;1.70;;;;;;;;;;4970204;28;20402;-66
2022/06/12 09:17:43;;;;;;;8.13;1.40;;;;;;;;;;4928196;28;20062;-66
2022/06/12 09:20:12;;;;;;;6.80;1.20;;;;;;;;;;4959674;28;20142;-66
2022/06/12 09:22:57;;;;;;;7.50;1.38;;;;;;;;;;4947616;28;20035;-69
2022/06/12 09:25:30;;;;;;;6.35;1.33;;;;;;;;;;4928528;28;20034;-68
2022/06/12 09:28:10;;;;;;;7.85;1.30;;;;;;;;;;4960377;28;20452;-68
2022/06/12 09:30:50;;;;;;;6.47;1.27;;;;;;;;;;4951171;28;20027;-68
2022/06/12 09:33:22;;;;;;;7.28;1.42;;;;;;;;;;4959248;28;20384;-67
2022/06/12 09:35:56;;;;;;;7.97;1.42;;;;;;;;;;4948843;28;20061;-67
2022/06/12 09:38:30;;;;;;;5.47;1.10;;;;;;;;;;4943690;28;20109;-67
2022/06/12 09:41:09;;;;;;;8.07;1.40;;;;;;;;;;4943334;28;20457;-67
2022/06/12 09:43:38;;;;;;;7.43;1.35;;;;;;;;;;4947517;28;20588;-67
2022/06/12 09:46:07;;;;;;;7.05;1.30;;;;;;;;;;4947206;28;20824;-67
2022/06/12 09:48:36;;;;;;;4.88;1.10;;;;;;;;;;4947698;28;20038;-67
2022/06/12 09:51:21;;;;;;;5.57;1.05;;;;;;;;;;4958527;28;20030;-69
2022/06/12 09:54:05;;;;;;;4.18;1.05;;;;;;;;;;4943987;28;20042;-66
2022/06/12 09:57:09;;;;;;;6.45;1.30;;;;;;;;;;4947196;28;20038;-66
2022/06/12 09:59:41;;;;;;;5.57;1.13;;;;;;;;;;4909356;28;20373;-67
2022/06/12 10:02:15;;;;;;;5.00;1.40;;;;;;;;;;4916051;28;20032;-66
2022/06/12 10:04:56;;;;;;;4.40;0.95;;;;;;;;;;4912942;28;20111;-67
2022/06/12 10:07:28;;;;;;;6.38;1.30;;;;;;;;;;4910597;28;20047;-67
2022/06/12 10:10:05;;;;;;;4.63;1.30;;;;;;;;;;4909458;28;21099;-67
2022/06/12 10:12:36;;;;;;;4.38;0.95;;;;;;;;;;4913144;28;20139;-67
2022/06/12 10:15:06;;;;;;;4.28;1.08;;;;;;;;;;4923397;28;20055;-67
2022/06/12 10:17:56;;;;;;;4.90;1.30;;;;;;;;;;4914577;28;20035;-67
2022/06/12 10:20:32;;;;;;;4.68;1.20;;;;;;;;;;4902985;28;20031;-68
2022/06/12 10:23:00;;;;;;;4.55;1.20;;;;;;;;;;4908733;28;20167;-67
2022/06/12 10:25:33;;;;;;;6.75;1.40;;;;;;;;;;4907910;28;20098;-67
2022/06/12 10:28:18;;;;;;;10.88;1.80;;;;;;;;;;4897129;28;20701;-66
2022/06/12 10:30:47;;;;;;;2.95;0.80;;;;;;;;;;4916060;28;20039;-66
2022/06/12 10:33:30;;;;;;;4.75;1.05;;;;;;;;;;4932847;28;20031;-66
2022/06/12 10:35:58;;;;;;;4.82;1.00;;;;;;;;;;4934889;28;20344;-67
2022/06/12 10:38:26;;;;;;;7.95;3.67;;;;;;;;;;4921800;28;20311;-67
2022/06/12 10:40:57;;;;;;;7.28;2.28;;;;;;;;;;4940695;28;20928;-74
2022/06/12 10:43:31;;;;;;;5.72;1.38;;;;;;;;;;4927366;28;20058;-71
2022/06/12 10:46:00;;;;;;;8.73;2.03;;;;;;;;;;4939804;28;20337;-73
2022/06/12 10:48:30;;;;;;;4.30;0.95;;;;;;;;;;4941862;28;20288;-72
2022/06/12 10:51:00;;;;;;;6.60;1.10;;;;;;;;;;4918921;28;20385;-73
2022/06/12 10:53:30;;;;;;;6.63;1.00;;;;;;;;;;4933519;28;20027;-75
2022/06/12 10:55:59;;;;;;;5.78;1.10;;;;;;;;;;4938553;28;20377;-70
2022/06/12 10:58:31;;;;;;;3.90;1.10;;;;;;;;;;4939959;28;20023;-71
2022/06/12 11:01:02;;;;;;;5.85;1.27;;;;;;;;;;4939835;28;20050;-73
2022/06/12 11:03:59;;;;;;;4.38;1.05;;;;;;;;;;4939910;28;20146;-75
2022/06/12 11:06:37;;;;;;;14.98;1.38;;;;;;;;;;4847102;29;20083;-73
2022/06/12 11:09:22;;;;;;;5.18;0.90;;;;;;;;;;4847081;29;20040;-73
2022/06/12 11:12:06;;;;;;;5.55;1.00;;;;;;;;;;4850791;29;20376;-79
2022/06/12 11:14:41;;;;;;;4.97;0.90;;;;;;;;;;4839338;29;20060;-76
2022/06/12 11:17:15;;;;;;;2.63;0.80;;;;;;;;;;4861698;29;20063;-77
2022/06/12 11:20:20;;;;;;;4.70;0.90;;;;;;;;;;4838602;29;20496;-79
2022/06/12 11:22:56;;;;;;;3.65;0.85;;;;;;;;;;4818810;29;20117;-77
2022/06/12 11:25:50;;;;;;;4.93;0.80;;;;;;;;;;4844289;29;20469;-78
2022/06/12 11:28:23;;;;;;;3.85;0.85;;;;;;;;;;4866523;29;20045;-79
2022/06/12 11:31:09;;;;;;;4.75;1.15;;;;;;;;;;4861432;29;20362;-77
2022/06/12 11:33:54;;;;;;;5.88;1.10;;;;;;;;;;4844751;29;20048;-77
2022/06/12 11:36:23;;;;;;;5.63;1.37;;;;;;;;;;4873124;29;20036;-78
2022/06/12 11:39:07;;;;;;;8.18;1.23;;;;;;;;;;4870478;29;20813;-78
2022/06/12 11:41:43;;;;;;;6.72;1.17;;;;;;;;;;4858950;29;20214;-78
2022/06/12 11:44:15;;;;;;;5.22;1.13;;;;;;;;;;4922327;28;20059;-78
2022/06/12 11:46:59;;;;;;;4.97;1.10;;;;;;;;;;4920197;28;20331;-78
2022/06/12 11:49:44;;;;;;;4.97;0.90;;;;;;;;;;4929082;28;20078;-80
2022/06/12 11:52:10;;;;;;;5.75;1.20;;;;;;;;;;4928407;28;20035;-78
2022/06/12 11:54:56;;;;;;;4.88;1.10;;;;;;;;;;4938746;28;20035;-77
2022/06/12 11:57:33;;;;;;;5.55;1.10;;;;;;;;;;4935363;28;20390;-79
2022/06/12 12:00:09;;;;;;;4.72;1.10;;;;;;;;;;4959845;28;20038;-78
2022/06/12 12:02:42;;;;;;;5.80;1.10;;;;;;;;;;4944630;28;20389;-78
2022/06/12 12:05:17;;;;;;;4.57;1.02;;;;;;;;;;4953664;28;20331;-78
2022/06/12 12:08:25;;;;;;;7.07;1.10;;;;;;;;;;4947520;28;20039;-78
2022/06/12 12:11:10;;;;;;;5.50;1.20;;;;;;;;;;4848872;29;20044;-78
2022/06/12 12:13:48;;;;;;;7.67;1.53;;;;;;;;;;4846870;29;20072;-79
2022/06/12 12:16:27;;;;;;;5.30;1.23;;;;;;;;;;4870376;29;20659;-79
2022/06/12 12:19:17;;;;;;;5.50;0.93;;;;;;;;;;4871978;29;20044;-79
2022/06/12 12:21:49;;;;;;;6.57;1.10;;;;;;;;;;4802948;29;20265;-79
2022/06/12 12:24:19;;;;;;;5.18;1.05;;;;;;;;;;4808423;29;20300;-78
2022/06/12 12:26:48;;;;;;;5.03;1.20;;;;;;;;;;4821275;29;20501;-79
2022/06/12 12:29:24;;;;;;;5.05;1.17;;;;;;;;;;4820847;29;20154;-79
2022/06/12 12:31:56;;;;;;;6.57;1.30;;;;;;;;;;4803180;29;20445;-77
2022/06/12 12:34:25;;;;;;;5.15;1.33;;;;;;;;;;4819077;29;20048;-79
2022/06/12 12:43:05;;;;;;;5.30;1.20;;;;;;;;;;4846997;29;20047;-78
2022/06/12 12:45:37;;;;;;;5.18;1.20;;;;;;;;;;4847166;29;20040;-78
2022/06/12 12:48:09;;;;;;;6.30;1.20;;;;;;;;;;4839426;29;20052;-78
2022/06/12 12:50:47;;;;;;;5.68;1.30;;;;;;;;;;4836877;29;20033;-77
2022/06/12 12:53:44;;;;;;;4.95;1.10;;;;;;;;;;4836810;29;20995;-78
2022/06/12 12:56:29;;;;;;;3.95;0.90;;;;;;;;;;4776089;29;20070;-77
2022/06/12 12:58:58;;;;;;;5.57;1.20;;;;;;;;;;4792090;29;20107;-76
2022/06/12 13:01:37;;;;;;;6.00;1.15;;;;;;;;;;4830686;29;20129;-77
2022/06/12 13:04:19;;;;;;;5.20;1.10;;;;;;;;;;4832814;29;20045;-79
2022/06/12 13:06:54;;;;;;;4.90;1.02;;;;;;;;;;4811236;29;20133;-77
2022/06/12 13:09:35;;;;;;;5.03;1.20;;;;;;;;;;4836248;29;20034;-79
2022/06/12 13:12:25;;;;;;;5.57;0.98;;;;;;;;;;4811856;29;20041;-78
2022/06/12 13:15:07;;;;;;;4.00;0.90;;;;;;;;;;4814732;29;20443;-77
2022/06/12 13:17:38;;;;;;;3.47;0.88;;;;;;;;;;4853253;29;20428;-78
2022/06/12 13:20:16;;;;;;;4.05;1.00;;;;;;;;;;4860278;29;20052;-78
2022/06/12 13:22:50;;;;;;;7.18;1.08;;;;;;;;;;4856888;29;20041;-78
2022/06/12 13:25:19;;;;;;;3.78;0.90;;;;;;;;;;4864730;29;20437;-78
2022/06/12 13:27:48;;;;;;;4.32;0.95;;;;;;;;;;4863693;29;20102;-79
2022/06/12 13:30:20;;;;;;;6.47;1.10;;;;;;;;;;4862456;29;20080;-78
2022/06/12 13:32:47;;;;;;;4.25;0.90;;;;;;;;;;4922005;28;20607;-77
2022/06/12 13:35:29;;;;;;;4.97;1.08;;;;;;;;;;4956797;28;20026;-78
2022/06/12 13:38:02;;;;;;;3.38;0.90;;;;;;;;;;4954341;28;20035;-77
2022/06/12 13:40:31;;;;;;;5.32;0.90;;;;;;;;;;4956911;28;20044;-79
2022/06/12 13:43:09;;;;;;;4.05;0.90;;;;;;;;;;4963257;28;20394;-78
2022/06/12 13:45:49;;;;;;;6.50;1.20;;;;;;;;;;4955980;28;20041;-79
2022/06/12 13:48:26;;;;;;;4.28;1.00;;;;;;;;;;4958552;28;20052;-80
2022/06/12 13:51:11;;;;;;;3.58;0.88;;;;;;;;;;4958920;28;20030;-80
2022/06/12 13:53:37;;;;;;;;;;;;;;;;;;4950132;28;20130;-78
2022/06/12 13:56:05;;;;;;;3.47;0.70;;;;;;;;;;4955557;28;19991;-77
2022/06/12 13:58:37;;;;;;;4.28;0.82;;;;;;;;;;4959383;28;20520;-79
2022/06/12 14:01:06;;;;;;;4.30;0.90;;;;;;;;;;4956758;28;20129;-78
2022/06/12 14:03:38;;;;;;;6.85;1.05;;;;;;;;;;4956641;28;20039;-80
2022/06/12 14:06:09;;;;;;;4.53;0.93;;;;;;;;;;4956542;28;20038;-79
2022/06/12 14:08:38;;;;;;;3.90;0.85;;;;;;;;;;4954847;28;20033;-80
2022/06/12 14:11:06;;;;;;;3.58;1.00;;;;;;;;;;4965296;28;20040;-79
2022/06/12 14:13:42;;;;;;;5.03;1.10;;;;;;;;;;4960472;28;20034;-80
2022/06/12 14:16:20;;;;;;;4.22;1.00;;;;;;;;;;4952709;28;20407;-78
2022/06/12 14:19:09;;;;;;;5.28;1.00;;;;;;;;;;4937392;28;20022;-79
2022/06/12 14:21:41;;;;;;;5.05;1.08;;;;;;;;;;4952936;28;20030;-79
2022/06/12 14:24:21;;;;;;;5.43;1.13;;;;;;;;;;4959549;28;20052;-80
2022/06/12 14:26:51;;;;;;;3.60;0.90;;;;;;;;;;4960499;28;20132;-80
2022/06/12 14:29:36;;;;;;;6.13;1.30;;;;;;;;;;4943655;28;20159;-80
2022/06/12 14:32:14;;;;;;;5.32;1.23;;;;;;;;;;4942413;28;20576;-79
2022/06/12 14:35:08;;;;;;;4.32;1.05;;;;;;;;;;4925068;28;20058;-79
2022/06/12 14:37:42;;;;;;;6.05;1.08;;;;;;;;;;4940418;28;20047;-79
2022/06/12 14:40:37;;;;;;;7.60;1.17;;;;;;;;;;4942149;28;20039;-80
2022/06/12 14:43:25;;;;;;;2.38;0.85;;;;;;;;;;4940982;28;20037;-80
2022/06/12 14:45:54;;;;;;;5.57;1.10;;;;;;;;;;4935769;28;20509;-79
2022/06/12 14:48:26;;;;;;;3.35;0.82;;;;;;;;;;4939586;28;20027;-80
2022/06/12 14:50:54;;;;;;;5.70;1.05;;;;;;;;;;4944164;28;20507;-71
2022/06/12 14:53:22;;;;;;;6.20;1.50;;;;;;;;;;4938326;28;20035;-70
2022/06/12 14:55:49;;;;;;;5.28;1.10;;;;;;;;;;4933282;28;20038;-72
2022/06/12 14:58:22;;;;;;;5.38;1.08;;;;;;;;;;4925309;28;20113;-71
2022/06/12 15:00:51;;;;;;;6.22;1.08;;;;;;;;;;4941031;28;20945;-76
2022/06/12 15:03:20;;;;;;;4.60;1.00;;;;;;;;;;4938141;28;20070;-77
2022/06/12 15:05:47;;;;;;;4.13;0.85;;;;;;;;;;4935336;28;20039;-76
2022/06/12 15:08:13;;;;;;;5.35;1.20;;;;;;;;;;4937785;28;20031;-76
2022/06/12 15:10:44;;;;;;;5.13;1.00;;;;;;;;;;4935625;28;20038;-78
2022/06/12 15:13:12;;;;;;;4.20;1.00;;;;;;;;;;4953054;28;20062;-76
2022/06/12 15:15:38;;;;;;;5.30;1.55;;;;;;;;;;4935049;28;20046;-76
2022/06/12 15:18:04;;;;;;;4.50;1.30;;;;;;;;;;4937569;28;20501;-77
2022/06/12 15:20:31;;;;;;;5.13;1.30;;;;;;;;;;4949176;28;20031;-77
2022/06/12 15:22:57;;;;;;;4.75;1.30;;;;;;;;;;4932379;28;20026;-77
2022/06/12 15:31:10;;;;;;;5.82;1.10;;;;;;;;;;4951202;28;20097;-68
2022/06/12 15:33:37;;;;;;;5.38;1.30;;;;;;;;;;4961303;28;20117;-71
2022/06/12 15:36:10;;;;;;;5.93;1.10;;;;;;;;;;4966208;28;20043;-71